Terminal Aerodrome Forecast
Issued by NWS Cleveland, OH

Home | Current Version | Previous Version | Graphics & Text | Print | Product List | Glossary Off
Versions: 1 2 3 4 5 6 7 8 9 10 11 12 13

000
FTUS41 KCLE 211900 AAA
TAFTOL
TAF AMD
KTOL 211900Z 2119/2218 20008KT P6SM BKN250
     FM220000 16004KT P6SM BKN250
     FM221500 18011KT P6SM BKN250=

USA.gov is the U.S. government's official web portal to all federal, state and local government web resources and services.